sensor_id;sensor_type;location;lat;lon;timestamp;P1;durP1;ratioP1;P2;durP2;ratioP2
55312;SDS011;46892;45.668;11.756;2024-02-23T00:00:30;81.37;;;46.30;;
55312;SDS011;46892;45.668;11.756;2024-02-23T00:02:56;83.97;;;47.77;;
55312;SDS011;46892;45.668;11.756;2024-02-23T00:05:23;92.27;;;49.73;;
55312;SDS011;46892;45.668;11.756;2024-02-23T00:07:49;86.83;;;48.97;;
55312;SDS011;46892;45.668;11.756;2024-02-23T00:10:15;85.17;;;48.90;;
55312;SDS011;46892;45.668;11.756;2024-02-23T00:12:41;93.83;;;51.27;;
55312;SDS011;46892;45.668;11.756;2024-02-23T00:15:08;98.10;;;51.30;;
55312;SDS011;46892;45.668;11.756;2024-02-23T00:17:35;98.33;;;54.20;;
55312;SDS011;46892;45.668;11.756;2024-02-23T00:20:01;101.93;;;55.13;;
55312;SDS011;46892;45.668;11.756;2024-02-23T00:22:27;103.17;;;54.67;;
55312;SDS011;46892;45.668;11.756;2024-02-23T00:24:52;101.90;;;55.10;;
55312;SDS011;46892;45.668;11.756;2024-02-23T00:27:18;105.00;;;54.13;;
55312;SDS011;46892;45.668;11.756;2024-02-23T00:29:44;107.70;;;54.53;;
55312;SDS011;46892;45.668;11.756;2024-02-23T00:32:10;109.30;;;55.50;;
55312;SDS011;46892;45.668;11.756;2024-02-23T00:34:36;106.13;;;57.00;;
55312;SDS011;46892;45.668;11.756;2024-02-23T00:37:02;109.67;;;56.43;;
55312;SDS011;46892;45.668;11.756;2024-02-23T00:39:28;111.97;;;55.80;;
55312;SDS011;46892;45.668;11.756;2024-02-23T00:41:54;105.63;;;55.50;;
55312;SDS011;46892;45.668;11.756;2024-02-23T00:44:20;106.37;;;55.20;;
55312;SDS011;46892;45.668;11.756;2024-02-23T00:46:45;110.33;;;55.87;;
55312;SDS011;46892;45.668;11.756;2024-02-23T00:49:11;105.70;;;53.17;;
55312;SDS011;46892;45.668;11.756;2024-02-23T00:51:37;107.07;;;54.03;;
55312;SDS011;46892;45.668;11.756;2024-02-23T00:54:03;95.30;;;50.73;;
55312;SDS011;46892;45.668;11.756;2024-02-23T00:56:28;94.30;;;50.63;;
55312;SDS011;46892;45.668;11.756;2024-02-23T00:58:54;85.20;;;45.43;;
55312;SDS011;46892;45.668;11.756;2024-02-23T01:01:20;82.53;;;45.07;;
55312;SDS011;46892;45.668;11.756;2024-02-23T01:03:45;70.30;;;41.13;;
55312;SDS011;46892;45.668;11.756;2024-02-23T01:06:11;73.07;;;41.50;;
55312;SDS011;46892;45.668;11.756;2024-02-23T01:08:37;69.47;;;39.87;;
55312;SDS011;46892;45.668;11.756;2024-02-23T01:11:05;71.63;;;40.17;;
55312;SDS011;46892;45.668;11.756;2024-02-23T01:13:30;74.30;;;41.20;;
55312;SDS011;46892;45.668;11.756;2024-02-23T01:15:56;76.70;;;43.00;;
55312;SDS011;46892;45.668;11.756;2024-02-23T01:18:22;71.80;;;41.00;;
55312;SDS011;46892;45.668;11.756;2024-02-23T01:20:48;71.80;;;41.87;;
55312;SDS011;46892;45.668;11.756;2024-02-23T01:23:13;64.67;;;38.93;;
55312;SDS011;46892;45.668;11.756;2024-02-23T01:25:39;64.53;;;39.53;;
55312;SDS011;46892;45.668;11.756;2024-02-23T01:28:06;63.17;;;37.60;;
55312;SDS011;46892;45.668;11.756;2024-02-23T01:30:31;58.33;;;35.67;;
55312;SDS011;46892;45.668;11.756;2024-02-23T01:32:57;55.43;;;34.70;;
55312;SDS011;46892;45.668;11.756;2024-02-23T01:35:23;45.97;;;29.87;;
55312;SDS011;46892;45.668;11.756;2024-02-23T01:37:48;43.27;;;28.27;;
55312;SDS011;46892;45.668;11.756;2024-02-23T01:40:14;41.43;;;25.73;;
55312;SDS011;46892;45.668;11.756;2024-02-23T01:42:40;36.80;;;23.87;;
55312;SDS011;46892;45.668;11.756;2024-02-23T01:45:06;33.63;;;21.20;;
55312;SDS011;46892;45.668;11.756;2024-02-23T01:47:32;31.70;;;21.73;;
55312;SDS011;46892;45.668;11.756;2024-02-23T01:49:58;29.07;;;19.83;;
55312;SDS011;46892;45.668;11.756;2024-02-23T01:52:24;28.67;;;18.80;;
55312;SDS011;46892;45.668;11.756;2024-02-23T01:54:51;26.30;;;18.03;;
55312;SDS011;46892;45.668;11.756;2024-02-23T01:57:18;23.83;;;17.00;;
55312;SDS011;46892;45.668;11.756;2024-02-23T01:59:44;21.50;;;14.90;;
55312;SDS011;46892;45.668;11.756;2024-02-23T02:02:09;18.43;;;13.77;;
55312;SDS011;46892;45.668;11.756;2024-02-23T02:04:35;21.53;;;13.83;;
55312;SDS011;46892;45.668;11.756;2024-02-23T02:07:01;18.33;;;13.30;;
55312;SDS011;46892;45.668;11.756;2024-02-23T02:09:27;19.30;;;13.23;;
55312;SDS011;46892;45.668;11.756;2024-02-23T02:11:52;19.30;;;13.07;;
55312;SDS011;46892;45.668;11.756;2024-02-23T02:14:18;19.03;;;13.67;;
55312;SDS011;46892;45.668;11.756;2024-02-23T02:16:44;17.73;;;11.97;;
55312;SDS011;46892;45.668;11.756;2024-02-23T02:19:10;18.07;;;12.50;;
55312;SDS011;46892;45.668;11.756;2024-02-23T02:21:37;18.87;;;13.43;;
55312;SDS011;46892;45.668;11.756;2024-02-23T02:24:03;18.93;;;13.20;;
55312;SDS011;46892;45.668;11.756;2024-02-23T02:26:29;19.73;;;14.27;;
55312;SDS011;46892;45.668;11.756;2024-02-23T02:28:55;20.37;;;14.07;;
55312;SDS011;46892;45.668;11.756;2024-02-23T02:31:21;19.63;;;14.17;;
55312;SDS011;46892;45.668;11.756;2024-02-23T02:33:47;21.17;;;14.23;;
55312;SDS011;46892;45.668;11.756;2024-02-23T02:36:13;22.77;;;15.60;;
55312;SDS011;46892;45.668;11.756;2024-02-23T02:38:39;22.10;;;14.63;;
55312;SDS011;46892;45.668;11.756;2024-02-23T02:41:04;20.23;;;15.03;;
55312;SDS011;46892;45.668;11.756;2024-02-23T02:43:30;23.03;;;15.97;;
55312;SDS011;46892;45.668;11.756;2024-02-23T02:45:57;23.30;;;15.40;;
55312;SDS011;46892;45.668;11.756;2024-02-23T02:48:23;20.33;;;13.70;;
55312;SDS011;46892;45.668;11.756;2024-02-23T02:50:49;21.70;;;15.07;;
55312;SDS011;46892;45.668;11.756;2024-02-23T02:53:16;20.83;;;14.50;;
55312;SDS011;46892;45.668;11.756;2024-02-23T02:55:43;21.37;;;14.40;;
55312;SDS011;46892;45.668;11.756;2024-02-23T02:58:12;19.93;;;14.10;;
55312;SDS011;46892;45.668;11.756;2024-02-23T03:00:38;20.37;;;13.27;;
55312;SDS011;46892;45.668;11.756;2024-02-23T03:03:04;19.53;;;13.03;;
55312;SDS011;46892;45.668;11.756;2024-02-23T03:05:31;20.60;;;15.07;;
55312;SDS011;46892;45.668;11.756;2024-02-23T03:07:56;21.80;;;14.73;;
55312;SDS011;46892;45.668;11.756;2024-02-23T03:10:22;19.40;;;13.73;;
55312;SDS011;46892;45.668;11.756;2024-02-23T03:12:48;22.33;;;14.43;;
55312;SDS011;46892;45.668;11.756;2024-02-23T03:15:13;20.50;;;14.67;;
55312;SDS011;46892;45.668;11.756;2024-02-23T03:17:40;19.40;;;14.43;;
55312;SDS011;46892;45.668;11.756;2024-02-23T03:20:06;18.50;;;13.33;;
55312;SDS011;46892;45.668;11.756;2024-02-23T03:22:36;18.73;;;12.85;;
55312;SDS011;46892;45.668;11.756;2024-02-23T03:25:02;17.30;;;12.50;;
55312;SDS011;46892;45.668;11.756;2024-02-23T03:27:36;16.60;;;11.57;;
55312;SDS011;46892;45.668;11.756;2024-02-23T03:30:05;14.73;;;10.83;;
55312;SDS011;46892;45.668;11.756;2024-02-23T03:32:33;14.03;;;9.97;;
55312;SDS011;46892;45.668;11.756;2024-02-23T03:37:30;13.80;;;9.43;;
55312;SDS011;46892;45.668;11.756;2024-02-23T03:39:56;13.73;;;9.37;;
55312;SDS011;46892;45.668;11.756;2024-02-23T03:42:22;13.10;;;8.97;;
55312;SDS011;46892;45.668;11.756;2024-02-23T03:44:47;11.83;;;8.27;;
55312;SDS011;46892;45.668;11.756;2024-02-23T03:47:13;11.70;;;8.27;;
55312;SDS011;46892;45.668;11.756;2024-02-23T03:49:39;10.40;;;8.03;;
55312;SDS011;46892;45.668;11.756;2024-02-23T03:52:05;8.87;;;7.20;;
55312;SDS011;46892;45.668;11.756;2024-02-23T03:54:31;9.93;;;7.50;;
55312;SDS011;46892;45.668;11.756;2024-02-23T03:56:57;11.23;;;7.13;;
55312;SDS011;46892;45.668;11.756;2024-02-23T03:59:22;10.47;;;7.40;;
55312;SDS011;46892;45.668;11.756;2024-02-23T04:01:49;8.77;;;6.53;;
55312;SDS011;46892;45.668;11.756;2024-02-23T04:04:15;8.40;;;6.40;;
55312;SDS011;46892;45.668;11.756;2024-02-23T04:06:40;7.63;;;6.03;;
55312;SDS011;46892;45.668;11.756;2024-02-23T04:09:06;7.60;;;5.87;;
55312;SDS011;46892;45.668;11.756;2024-02-23T04:11:34;7.20;;;5.03;;
55312;SDS011;46892;45.668;11.756;2024-02-23T04:13:59;6.33;;;4.90;;
55312;SDS011;46892;45.668;11.756;2024-02-23T04:16:26;6.10;;;4.50;;
55312;SDS011;46892;45.668;11.756;2024-02-23T04:18:52;7.93;;;4.40;;
55312;SDS011;46892;45.668;11.756;2024-02-23T04:21:19;6.93;;;4.50;;
55312;SDS011;46892;45.668;11.756;2024-02-23T04:23:45;6.73;;;4.40;;
55312;SDS011;46892;45.668;11.756;2024-02-23T04:26:11;6.50;;;4.63;;
55312;SDS011;46892;45.668;11.756;2024-02-23T04:28:40;6.93;;;4.77;;
55312;SDS011;46892;45.668;11.756;2024-02-23T04:31:06;9.83;;;5.20;;
55312;SDS011;46892;45.668;11.756;2024-02-23T04:33:35;8.00;;;4.93;;
55312;SDS011;46892;45.668;11.756;2024-02-23T04:36:01;6.27;;;4.40;;
55312;SDS011;46892;45.668;11.756;2024-02-23T04:38:28;6.93;;;4.93;;
55312;SDS011;46892;45.668;11.756;2024-02-23T04:40:54;6.37;;;4.70;;
55312;SDS011;46892;45.668;11.756;2024-02-23T04:43:21;7.73;;;4.70;;
55312;SDS011;46892;45.668;11.756;2024-02-23T04:45:48;9.73;;;5.20;;
55312;SDS011;46892;45.668;11.756;2024-02-23T04:48:14;6.10;;;4.00;;
55312;SDS011;46892;45.668;11.756;2024-02-23T04:50:39;5.70;;;4.13;;
55312;SDS011;46892;45.668;11.756;2024-02-23T04:53:05;4.97;;;3.77;;
55312;SDS011;46892;45.668;11.756;2024-02-23T04:55:31;5.17;;;3.97;;
55312;SDS011;46892;45.668;11.756;2024-02-23T04:57:57;5.80;;;3.60;;
55312;SDS011;46892;45.668;11.756;2024-02-23T05:00:22;5.93;;;3.77;;
55312;SDS011;46892;45.668;11.756;2024-02-23T05:02:48;4.83;;;3.63;;
55312;SDS011;46892;45.668;11.756;2024-02-23T05:05:14;6.03;;;3.53;;
55312;SDS011;46892;45.668;11.756;2024-02-23T05:07:40;5.20;;;3.33;;
55312;SDS011;46892;45.668;11.756;2024-02-23T05:10:06;4.83;;;3.43;;
55312;SDS011;46892;45.668;11.756;2024-02-23T05:12:32;5.87;;;3.27;;
55312;SDS011;46892;45.668;11.756;2024-02-23T05:14:58;6.93;;;3.43;;
55312;SDS011;46892;45.668;11.756;2024-02-23T05:17:23;5.07;;;3.40;;
55312;SDS011;46892;45.668;11.756;2024-02-23T05:19:49;5.57;;;3.80;;
55312;SDS011;46892;45.668;11.756;2024-02-23T05:22:15;7.23;;;4.13;;
55312;SDS011;46892;45.668;11.756;2024-02-23T05:24:40;5.83;;;4.20;;
55312;SDS011;46892;45.668;11.756;2024-02-23T05:27:06;6.30;;;4.20;;
55312;SDS011;46892;45.668;11.756;2024-02-23T05:29:32;6.57;;;4.63;;
55312;SDS011;46892;45.668;11.756;2024-02-23T05:31:58;8.30;;;4.80;;
55312;SDS011;46892;45.668;11.756;2024-02-23T05:34:24;8.93;;;5.00;;
55312;SDS011;46892;45.668;11.756;2024-02-23T05:36:50;9.83;;;5.33;;
55312;SDS011;46892;45.668;11.756;2024-02-23T05:39:16;10.67;;;5.17;;
55312;SDS011;46892;45.668;11.756;2024-02-23T05:41:43;16.30;;;5.40;;
55312;SDS011;46892;45.668;11.756;2024-02-23T05:44:08;10.23;;;5.37;;
55312;SDS011;46892;45.668;11.756;2024-02-23T05:46:35;8.57;;;5.37;;
55312;SDS011;46892;45.668;11.756;2024-02-23T05:49:02;9.60;;;5.10;;
55312;SDS011;46892;45.668;11.756;2024-02-23T05:51:29;10.53;;;5.80;;
55312;SDS011;46892;45.668;11.756;2024-02-23T05:53:55;9.97;;;5.50;;
55312;SDS011;46892;45.668;11.756;2024-02-23T05:56:21;9.83;;;5.47;;
55312;SDS011;46892;45.668;11.756;2024-02-23T05:58:49;10.83;;;5.47;;
55312;SDS011;46892;45.668;11.756;2024-02-23T06:01:14;11.23;;;5.57;;
55312;SDS011;46892;45.668;11.756;2024-02-23T06:03:40;11.93;;;5.33;;
55312;SDS011;46892;45.668;11.756;2024-02-23T06:06:09;12.83;;;5.90;;
55312;SDS011;46892;45.668;11.756;2024-02-23T06:08:35;11.53;;;5.60;;
55312;SDS011;46892;45.668;11.756;2024-02-23T06:11:01;9.37;;;5.67;;
55312;SDS011;46892;45.668;11.756;2024-02-23T06:13:28;9.00;;;4.87;;
55312;SDS011;46892;45.668;11.756;2024-02-23T06:15:54;9.33;;;5.63;;
55312;SDS011;46892;45.668;11.756;2024-02-23T06:18:20;8.53;;;5.13;;
55312;SDS011;46892;45.668;11.756;2024-02-23T06:20:46;9.07;;;5.30;;
55312;SDS011;46892;45.668;11.756;2024-02-23T06:23:12;10.23;;;5.87;;
55312;SDS011;46892;45.668;11.756;2024-02-23T06:25:38;10.27;;;4.97;;
55312;SDS011;46892;45.668;11.756;2024-02-23T06:28:04;13.03;;;5.30;;
55312;SDS011;46892;45.668;11.756;2024-02-23T06:30:31;9.57;;;5.37;;
55312;SDS011;46892;45.668;11.756;2024-02-23T06:32:57;8.37;;;5.30;;
55312;SDS011;46892;45.668;11.756;2024-02-23T06:35:23;10.43;;;5.17;;
55312;SDS011;46892;45.668;11.756;2024-02-23T06:37:48;9.30;;;5.90;;
55312;SDS011;46892;45.668;11.756;2024-02-23T06:40:14;10.57;;;5.87;;
55312;SDS011;46892;45.668;11.756;2024-02-23T06:42:40;10.43;;;5.30;;
55312;SDS011;46892;45.668;11.756;2024-02-23T06:45:06;10.83;;;5.67;;
55312;SDS011;46892;45.668;11.756;2024-02-23T06:47:32;11.03;;;5.30;;
55312;SDS011;46892;45.668;11.756;2024-02-23T06:49:58;12.67;;;6.20;;
55312;SDS011;46892;45.668;11.756;2024-02-23T06:52:24;10.97;;;5.97;;
55312;SDS011;46892;45.668;11.756;2024-02-23T06:54:51;9.30;;;5.37;;
55312;SDS011;46892;45.668;11.756;2024-02-23T06:57:17;10.70;;;5.83;;
55312;SDS011;46892;45.668;11.756;2024-02-23T06:59:43;11.70;;;6.07;;
55312;SDS011;46892;45.668;11.756;2024-02-23T07:02:09;10.43;;;5.33;;
55312;SDS011;46892;45.668;11.756;2024-02-23T07:04:35;9.73;;;5.40;;
55312;SDS011;46892;45.668;11.756;2024-02-23T07:07:00;10.57;;;5.97;;
55312;SDS011;46892;45.668;11.756;2024-02-23T07:09:32;11.33;;;6.40;;
55312;SDS011;46892;45.668;11.756;2024-02-23T07:11:59;9.57;;;5.97;;
55312;SDS011;46892;45.668;11.756;2024-02-23T07:14:24;11.80;;;6.67;;
55312;SDS011;46892;45.668;11.756;2024-02-23T07:16:50;13.83;;;5.93;;
55312;SDS011;46892;45.668;11.756;2024-02-23T07:19:17;10.27;;;5.47;;
55312;SDS011;46892;45.668;11.756;2024-02-23T07:21:43;11.73;;;6.13;;
55312;SDS011;46892;45.668;11.756;2024-02-23T07:24:09;13.93;;;5.73;;
55312;SDS011;46892;45.668;11.756;2024-02-23T07:26:35;11.23;;;6.00;;
55312;SDS011;46892;45.668;11.756;2024-02-23T07:29:01;11.97;;;6.00;;
55312;SDS011;46892;45.668;11.756;2024-02-23T07:31:26;11.27;;;5.30;;
55312;SDS011;46892;45.668;11.756;2024-02-23T07:33:52;13.20;;;6.80;;
55312;SDS011;46892;45.668;11.756;2024-02-23T07:36:18;11.83;;;6.03;;
55312;SDS011;46892;45.668;11.756;2024-02-23T07:38:44;10.03;;;6.33;;
55312;SDS011;46892;45.668;11.756;2024-02-23T07:41:10;10.27;;;7.10;;
55312;SDS011;46892;45.668;11.756;2024-02-23T07:43:36;12.40;;;6.30;;
55312;SDS011;46892;45.668;11.756;2024-02-23T07:46:02;10.80;;;6.23;;
55312;SDS011;46892;45.668;11.756;2024-02-23T07:48:30;11.30;;;6.80;;
55312;SDS011;46892;45.668;11.756;2024-02-23T07:50:55;11.60;;;7.00;;
55312;SDS011;46892;45.668;11.756;2024-02-23T07:53:21;12.53;;;7.13;;
55312;SDS011;46892;45.668;11.756;2024-02-23T07:55:47;12.90;;;6.53;;
55312;SDS011;46892;45.668;11.756;2024-02-23T07:58:12;12.13;;;6.50;;
55312;SDS011;46892;45.668;11.756;2024-02-23T08:00:38;13.83;;;6.63;;
55312;SDS011;46892;45.668;11.756;2024-02-23T08:03:04;13.33;;;6.37;;
55312;SDS011;46892;45.668;11.756;2024-02-23T08:05:30;13.73;;;7.37;;
55312;SDS011;46892;45.668;11.756;2024-02-23T08:07:56;11.47;;;6.40;;
55312;SDS011;46892;45.668;11.756;2024-02-23T08:10:21;12.73;;;7.47;;
55312;SDS011;46892;45.668;11.756;2024-02-23T08:12:47;16.13;;;7.20;;
55312;SDS011;46892;45.668;11.756;2024-02-23T08:15:13;16.20;;;7.37;;
55312;SDS011;46892;45.668;11.756;2024-02-23T08:17:39;13.47;;;7.43;;
55312;SDS011;46892;45.668;11.756;2024-02-23T08:20:05;8.90;;;6.10;;
55312;SDS011;46892;45.668;11.756;2024-02-23T08:22:31;11.57;;;6.40;;
55312;SDS011;46892;45.668;11.756;2024-02-23T08:24:56;11.17;;;6.00;;
55312;SDS011;46892;45.668;11.756;2024-02-23T08:27:22;11.60;;;6.03;;
55312;SDS011;46892;45.668;11.756;2024-02-23T08:29:48;9.23;;;6.30;;
55312;SDS011;46892;45.668;11.756;2024-02-23T08:32:14;10.13;;;6.27;;
55312;SDS011;46892;45.668;11.756;2024-02-23T08:34:39;10.30;;;6.17;;
55312;SDS011;46892;45.668;11.756;2024-02-23T08:37:05;11.33;;;7.77;;
55312;SDS011;46892;45.668;11.756;2024-02-23T08:39:31;15.83;;;6.10;;
55312;SDS011;46892;45.668;11.756;2024-02-23T08:41:58;14.80;;;6.43;;
55312;SDS011;46892;45.668;11.756;2024-02-23T08:44:24;14.13;;;6.87;;
55312;SDS011;46892;45.668;11.756;2024-02-23T08:46:50;14.27;;;6.70;;
55312;SDS011;46892;45.668;11.756;2024-02-23T08:49:15;14.30;;;6.40;;
55312;SDS011;46892;45.668;11.756;2024-02-23T08:51:41;15.27;;;7.00;;
55312;SDS011;46892;45.668;11.756;2024-02-23T08:54:07;11.57;;;7.53;;
55312;SDS011;46892;45.668;11.756;2024-02-23T08:56:39;12.73;;;7.20;;
55312;SDS011;46892;45.668;11.756;2024-02-23T08:59:07;14.93;;;6.27;;
55312;SDS011;46892;45.668;11.756;2024-02-23T09:01:34;12.20;;;6.80;;
55312;SDS011;46892;45.668;11.756;2024-02-23T09:04:00;12.77;;;6.77;;
55312;SDS011;46892;45.668;11.756;2024-02-23T09:06:26;11.03;;;6.33;;
55312;SDS011;46892;45.668;11.756;2024-02-23T09:08:52;10.67;;;6.33;;
55312;SDS011;46892;45.668;11.756;2024-02-23T09:11:17;13.93;;;7.37;;
55312;SDS011;46892;45.668;11.756;2024-02-23T09:13:43;12.37;;;7.03;;
55312;SDS011;46892;45.668;11.756;2024-02-23T09:16:09;10.73;;;6.07;;
55312;SDS011;46892;45.668;11.756;2024-02-23T09:18:35;14.67;;;6.33;;
55312;SDS011;46892;45.668;11.756;2024-02-23T09:21:00;14.93;;;7.07;;
55312;SDS011;46892;45.668;11.756;2024-02-23T09:23:26;10.27;;;6.53;;
55312;SDS011;46892;45.668;11.756;2024-02-23T09:25:52;10.57;;;6.00;;
55312;SDS011;46892;45.668;11.756;2024-02-23T09:28:18;14.20;;;6.87;;
55312;SDS011;46892;45.668;11.756;2024-02-23T09:30:44;11.13;;;5.83;;
55312;SDS011;46892;45.668;11.756;2024-02-23T09:33:09;12.10;;;6.50;;
55312;SDS011;46892;45.668;11.756;2024-02-23T09:35:35;13.00;;;7.23;;
55312;SDS011;46892;45.668;11.756;2024-02-23T09:38:01;16.00;;;8.53;;
55312;SDS011;46892;45.668;11.756;2024-02-23T09:40:27;14.30;;;7.73;;
55312;SDS011;46892;45.668;11.756;2024-02-23T09:42:57;12.33;;;6.50;;
55312;SDS011;46892;45.668;11.756;2024-02-23T09:45:26;15.90;;;6.43;;
55312;SDS011;46892;45.668;11.756;2024-02-23T09:47:53;11.60;;;6.17;;
55312;SDS011;46892;45.668;11.756;2024-02-23T09:50:22;11.20;;;6.20;;
55312;SDS011;46892;45.668;11.756;2024-02-23T09:52:49;11.40;;;5.90;;
55312;SDS011;46892;45.668;11.756;2024-02-23T09:55:18;10.87;;;6.80;;
55312;SDS011;46892;45.668;11.756;2024-02-23T09:57:47;11.77;;;6.67;;
55312;SDS011;46892;45.668;11.756;2024-02-23T10:00:16;11.10;;;6.70;;
55312;SDS011;46892;45.668;11.756;2024-02-23T10:02:42;15.90;;;6.97;;
55312;SDS011;46892;45.668;11.756;2024-02-23T10:05:10;12.37;;;6.33;;
55312;SDS011;46892;45.668;11.756;2024-02-23T10:07:36;13.27;;;6.60;;
55312;SDS011;46892;45.668;11.756;2024-02-23T10:10:01;9.90;;;5.57;;
55312;SDS011;46892;45.668;11.756;2024-02-23T10:12:29;10.20;;;5.63;;
55312;SDS011;46892;45.668;11.756;2024-02-23T10:14:54;10.27;;;6.17;;
55312;SDS011;46892;45.668;11.756;2024-02-23T10:17:20;11.87;;;6.70;;
55312;SDS011;46892;45.668;11.756;2024-02-23T10:19:46;9.60;;;6.03;;
55312;SDS011;46892;45.668;11.756;2024-02-23T10:22:12;11.33;;;6.87;;
55312;SDS011;46892;45.668;11.756;2024-02-23T10:24:38;11.17;;;6.67;;
55312;SDS011;46892;45.668;11.756;2024-02-23T10:27:04;15.53;;;6.33;;
55312;SDS011;46892;45.668;11.756;2024-02-23T10:29:30;10.33;;;6.70;;
55312;SDS011;46892;45.668;11.756;2024-02-23T10:31:56;12.23;;;7.00;;
55312;SDS011;46892;45.668;11.756;2024-02-23T10:34:23;12.07;;;7.87;;
55312;SDS011;46892;45.668;11.756;2024-02-23T10:36:51;11.87;;;7.60;;
55312;SDS011;46892;45.668;11.756;2024-02-23T10:39:18;12.47;;;6.87;;
55312;SDS011;46892;45.668;11.756;2024-02-23T10:41:47;11.23;;;7.00;;
55312;SDS011;46892;45.668;11.756;2024-02-23T10:44:21;12.93;;;8.13;;
55312;SDS011;46892;45.668;11.756;2024-02-23T10:46:46;11.73;;;7.00;;
55312;SDS011;46892;45.668;11.756;2024-02-23T10:49:16;10.53;;;8.07;;
55312;SDS011;46892;45.668;11.756;2024-02-23T10:51:46;12.45;;;7.78;;
55312;SDS011;46892;45.668;11.756;2024-02-23T10:54:13;16.03;;;8.63;;
55312;SDS011;46892;45.668;11.756;2024-02-23T10:56:42;11.93;;;7.40;;
55312;SDS011;46892;45.668;11.756;2024-02-23T10:59:08;20.00;;;12.83;;
55312;SDS011;46892;45.668;11.756;2024-02-23T11:01:34;9.77;;;5.93;;
55312;SDS011;46892;45.668;11.756;2024-02-23T11:04:01;10.30;;;6.07;;
55312;SDS011;46892;45.668;11.756;2024-02-23T11:06:28;9.57;;;5.57;;
55312;SDS011;46892;45.668;11.756;2024-02-23T11:08:54;12.70;;;7.43;;
55312;SDS011;46892;45.668;11.756;2024-02-23T11:11:31;9.80;;;6.37;;
55312;SDS011;46892;45.668;11.756;2024-02-23T11:13:57;9.93;;;7.00;;
55312;SDS011;46892;45.668;11.756;2024-02-23T11:16:23;12.80;;;9.40;;
55312;SDS011;46892;45.668;11.756;2024-02-23T11:19:00;9.50;;;6.17;;
55312;SDS011;46892;45.668;11.756;2024-02-23T11:21:36;8.73;;;6.65;;
55312;SDS011;46892;45.668;11.756;2024-02-23T11:24:06;10.17;;;6.23;;
55312;SDS011;46892;45.668;11.756;2024-02-23T11:26:32;10.33;;;6.07;;
55312;SDS011;46892;45.668;11.756;2024-02-23T11:29:09;9.63;;;5.80;;
55312;SDS011;46892;45.668;11.756;2024-02-23T11:31:36;9.47;;;5.57;;
55312;SDS011;46892;45.668;11.756;2024-02-23T11:34:10;8.30;;;5.70;;
55312;SDS011;46892;45.668;11.756;2024-02-23T11:36:36;12.13;;;7.23;;
55312;SDS011;46892;45.668;11.756;2024-02-23T11:39:04;11.00;;;6.97;;
55312;SDS011;46892;45.668;11.756;2024-02-23T11:41:30;12.13;;;7.10;;
55312;SDS011;46892;45.668;11.756;2024-02-23T11:43:56;9.47;;;6.20;;
55312;SDS011;46892;45.668;11.756;2024-02-23T11:46:25;8.57;;;6.70;;
55312;SDS011;46892;45.668;11.756;2024-02-23T11:48:51;8.00;;;5.67;;
55312;SDS011;46892;45.668;11.756;2024-02-23T11:51:20;10.70;;;7.50;;
55312;SDS011;46892;45.668;11.756;2024-02-23T11:53:48;10.57;;;7.03;;
55312;SDS011;46892;45.668;11.756;2024-02-23T11:56:14;11.37;;;9.13;;
55312;SDS011;46892;45.668;11.756;2024-02-23T11:58:41;8.53;;;5.10;;
55312;SDS011;46892;45.668;11.756;2024-02-23T12:01:07;7.70;;;4.93;;
55312;SDS011;46892;45.668;11.756;2024-02-23T12:03:33;7.87;;;5.00;;
55312;SDS011;46892;45.668;11.756;2024-02-23T12:06:02;8.43;;;4.83;;
55312;SDS011;46892;45.668;11.756;2024-02-23T12:08:30;7.47;;;4.27;;
55312;SDS011;46892;45.668;11.756;2024-02-23T12:11:06;7.37;;;4.30;;
55312;SDS011;46892;45.668;11.756;2024-02-23T12:13:36;10.03;;;5.23;;
55312;SDS011;46892;45.668;11.756;2024-02-23T12:16:03;11.10;;;5.83;;
55312;SDS011;46892;45.668;11.756;2024-02-23T12:18:29;6.77;;;4.23;;
55312;SDS011;46892;45.668;11.756;2024-02-23T12:23:27;6.77;;;4.57;;
55312;SDS011;46892;45.668;11.756;2024-02-23T12:26:13;7.13;;;4.60;;
55312;SDS011;46892;45.668;11.756;2024-02-23T12:28:40;6.40;;;4.63;;
55312;SDS011;46892;45.668;11.756;2024-02-23T12:31:06;5.80;;;4.33;;
55312;SDS011;46892;45.668;11.756;2024-02-23T12:33:33;6.67;;;4.37;;
55312;SDS011;46892;45.668;11.756;2024-02-23T12:36:00;7.47;;;5.33;;
55312;SDS011;46892;45.668;11.756;2024-02-23T12:38:27;7.07;;;4.53;;
55312;SDS011;46892;45.668;11.756;2024-02-23T12:40:52;6.47;;;3.90;;
55312;SDS011;46892;45.668;11.756;2024-02-23T12:43:18;7.27;;;4.13;;
55312;SDS011;46892;45.668;11.756;2024-02-23T12:45:49;13.93;;;11.32;;
55312;SDS011;46892;45.668;11.756;2024-02-23T12:48:18;8.30;;;5.50;;
55312;SDS011;46892;45.668;11.756;2024-02-23T12:50:45;8.63;;;5.63;;
55312;SDS011;46892;45.668;11.756;2024-02-23T12:56:03;8.57;;;6.13;;
55312;SDS011;46892;45.668;11.756;2024-02-23T12:58:33;7.93;;;6.15;;
55312;SDS011;46892;45.668;11.756;2024-02-23T13:01:01;9.37;;;6.47;;
55312;SDS011;46892;45.668;11.756;2024-02-23T13:03:27;8.50;;;6.13;;
55312;SDS011;46892;45.668;11.756;2024-02-23T13:05:56;8.17;;;5.83;;
55312;SDS011;46892;45.668;11.756;2024-02-23T13:08:22;9.00;;;6.57;;
55312;SDS011;46892;45.668;11.756;2024-02-23T13:10:49;7.60;;;5.90;;
55312;SDS011;46892;45.668;11.756;2024-02-23T13:13:16;9.53;;;6.07;;
55312;SDS011;46892;45.668;11.756;2024-02-23T13:15:42;8.73;;;5.60;;
55312;SDS011;46892;45.668;11.756;2024-02-23T13:18:09;8.03;;;5.90;;
55312;SDS011;46892;45.668;11.756;2024-02-23T13:20:35;8.60;;;6.37;;
55312;SDS011;46892;45.668;11.756;2024-02-23T13:23:02;7.37;;;5.93;;
55312;SDS011;46892;45.668;11.756;2024-02-23T13:25:28;7.90;;;5.63;;
55312;SDS011;46892;45.668;11.756;2024-02-23T13:27:54;8.60;;;6.37;;
55312;SDS011;46892;45.668;11.756;2024-02-23T13:30:20;8.20;;;5.77;;
55312;SDS011;46892;45.668;11.756;2024-02-23T13:32:46;9.10;;;6.43;;
55312;SDS011;46892;45.668;11.756;2024-02-23T13:35:11;8.57;;;6.83;;
55312;SDS011;46892;45.668;11.756;2024-02-23T13:37:39;9.47;;;6.13;;
55312;SDS011;46892;45.668;11.756;2024-02-23T13:40:07;7.60;;;5.37;;
55312;SDS011;46892;45.668;11.756;2024-02-23T13:42:34;8.20;;;6.03;;
55312;SDS011;46892;45.668;11.756;2024-02-23T13:45:00;7.40;;;5.33;;
55312;SDS011;46892;45.668;11.756;2024-02-23T13:47:26;9.20;;;5.70;;
55312;SDS011;46892;45.668;11.756;2024-02-23T13:49:52;9.03;;;5.27;;
55312;SDS011;46892;45.668;11.756;2024-02-23T13:52:17;5.73;;;3.87;;
55312;SDS011;46892;45.668;11.756;2024-02-23T13:54:43;2.87;;;2.10;;
55312;SDS011;46892;45.668;11.756;2024-02-23T13:57:09;4.13;;;2.43;;
55312;SDS011;46892;45.668;11.756;2024-02-23T13:59:36;4.47;;;2.10;;
55312;SDS011;46892;45.668;11.756;2024-02-23T14:02:01;5.40;;;2.60;;
55312;SDS011;46892;45.668;11.756;2024-02-23T14:04:28;4.50;;;2.53;;
55312;SDS011;46892;45.668;11.756;2024-02-23T14:06:53;4.37;;;2.57;;
55312;SDS011;46892;45.668;11.756;2024-02-23T14:09:19;2.87;;;1.40;;
55312;SDS011;46892;45.668;11.756;2024-02-23T14:11:45;1.43;;;1.20;;
55312;SDS011;46892;45.668;11.756;2024-02-23T14:14:10;1.70;;;1.50;;
55312;SDS011;46892;45.668;11.756;2024-02-23T14:16:36;2.80;;;1.40;;
55312;SDS011;46892;45.668;11.756;2024-02-23T14:19:02;4.57;;;2.03;;
55312;SDS011;46892;45.668;11.756;2024-02-23T14:21:28;3.07;;;2.00;;
55312;SDS011;46892;45.668;11.756;2024-02-23T14:23:54;3.03;;;2.10;;
55312;SDS011;46892;45.668;11.756;2024-02-23T14:26:20;4.37;;;2.30;;